createdAt,value
2019-01-12T20:20:35.346Z,4.07
2019-01-12T20:24:40.140Z,3.80
2019-01-12T20:28:44.814Z,4.40
2019-01-12T20:33:01.758Z,4.37
2019-01-12T20:37:27.352Z,4.23
2019-01-12T20:41:40.392Z,5.93
2019-01-12T20:45:57.308Z,4.60
2019-01-12T20:50:10.819Z,3.53
2019-01-12T20:54:38.620Z,3.40
2019-01-12T20:58:49.223Z,4.13
2019-01-12T21:03:15.503Z,4.87
2019-01-12T21:07:32.347Z,5.60
2019-01-12T21:11:55.217Z,4.57
2019-01-12T21:16:03.207Z,5.00
2019-01-12T21:20:09.938Z,4.60
2019-01-12T21:24:14.617Z,9.90
2019-01-12T21:28:19.298Z,6.77
2019-01-12T21:32:23.975Z,4.03
2019-01-12T21:36:28.656Z,5.23
2019-01-12T21:40:33.333Z,3.07
2019-01-12T21:44:38.011Z,2.60
2019-01-12T21:48:42.691Z,2.53
2019-01-12T21:52:47.370Z,3.23
2019-01-12T21:56:52.034Z,3.17
2019-01-12T22:00:56.729Z,1.83
2019-01-12T22:05:01.404Z,2.07
2019-01-12T22:09:08.026Z,2.83
2019-01-12T22:13:12.713Z,3.40
2019-01-12T22:17:17.389Z,2.30
2019-01-12T22:21:22.061Z,2.73
2019-01-12T22:25:26.740Z,2.33
2019-01-12T22:29:31.429Z,2.03
2019-01-12T22:33:36.190Z,4.10
2019-01-12T22:37:40.851Z,3.40
2019-01-12T22:41:45.537Z,3.53
2019-01-12T22:45:50.215Z,3.60
2019-01-12T22:49:54.893Z,3.97
2019-01-12T22:54:00.540Z,2.80
2019-01-12T22:58:05.216Z,3.60
2019-01-12T23:02:10.271Z,6.07
2019-01-12T23:06:14.939Z,5.67
2019-01-12T23:10:19.626Z,4.57
2019-01-12T23:14:24.298Z,8.50
2019-01-12T23:18:28.985Z,6.97
2019-01-12T23:22:33.669Z,4.40
2019-01-12T23:26:38.343Z,5.00
2019-01-12T23:30:43.019Z,6.13
2019-01-12T23:34:48.764Z,6.43
2019-01-12T23:38:53.444Z,6.03
2019-01-12T23:42:58.126Z,5.80
2019-01-12T23:47:02.809Z,6.80
2019-01-12T23:51:07.487Z,6.93
2019-01-12T23:55:12.173Z,6.63
2019-01-12T23:59:16.844Z,6.90
